createdAt,value
2022-12-06T00:00:01.916Z,11.60
2022-12-06T00:02:54.881Z,12.20
2022-12-06T00:07:57.784Z,11.60
2022-12-06T00:10:30.082Z,9.90
2022-12-06T00:13:02.313Z,11.10
2022-12-06T00:15:38.280Z,15.50
2022-12-06T00:18:10.455Z,12.80
2022-12-06T00:20:42.630Z,14.60
2022-12-06T00:23:14.976Z,12.30
2022-12-06T00:25:47.164Z,12.70
2022-12-06T00:28:19.459Z,11.50
2022-12-06T00:30:51.672Z,8.70
2022-12-06T00:33:23.932Z,9.40
2022-12-06T00:36:00.117Z,12.90
2022-12-06T00:38:33.053Z,13.60
2022-12-06T00:41:07.008Z,12.10
2022-12-06T00:43:39.556Z,10.50
2022-12-06T00:48:43.116Z,13.00
2022-12-06T00:51:16.417Z,9.90
2022-12-06T00:53:48.862Z,12.10
2022-12-06T00:56:21.679Z,10.70
2022-12-06T00:58:53.948Z,10.10
2022-12-06T01:01:28.019Z,9.90
2022-12-06T01:04:02.476Z,11.10
2022-12-06T01:06:36.761Z,11.60
2022-12-06T01:09:15.067Z,10.70
2022-12-06T01:11:47.234Z,9.10
2022-12-06T01:14:19.411Z,10.40
2022-12-06T01:16:51.724Z,10.90
2022-12-06T01:19:23.978Z,9.10
2022-12-06T01:21:56.247Z,10.00
2022-12-06T01:24:28.443Z,9.40
2022-12-06T01:27:00.752Z,12.50
2022-12-06T01:29:32.961Z,12.30
2022-12-06T01:32:05.292Z,9.90
2022-12-06T01:34:37.754Z,9.30
2022-12-06T01:37:10.024Z,8.50
2022-12-06T01:39:42.185Z,10.00
2022-12-06T01:42:14.793Z,9.40
2022-12-06T01:47:20.687Z,8.00
2022-12-06T01:49:57.052Z,7.60
2022-12-06T01:52:32.237Z,6.20
2022-12-06T01:55:05.305Z,7.70
2022-12-06T01:57:37.897Z,6.50
2022-12-06T02:02:42.300Z,8.80
2022-12-06T02:05:15.046Z,7.00
2022-12-06T02:07:47.607Z,6.40
2022-12-06T02:12:53.781Z,7.80
2022-12-06T02:15:28.710Z,7.30
2022-12-06T02:18:07.013Z,5.40
2022-12-06T02:21:03.683Z,6.40
2022-12-06T02:24:05.968Z,5.60
2022-12-06T02:26:42.655Z,5.60
2022-12-06T02:29:32.860Z,4.90
2022-12-06T02:32:10.022Z,6.00
2022-12-06T02:34:46.815Z,5.40
2022-12-06T02:37:21.937Z,5.10
2022-12-06T02:39:57.031Z,4.80
2022-12-06T02:42:34.544Z,5.90
2022-12-06T02:45:12.804Z,5.30
2022-12-06T02:47:45.872Z,5.10
2022-12-06T02:50:21.075Z,7.20
2022-12-06T02:52:56.736Z,5.00
2022-12-06T02:55:29.479Z,6.80
2022-12-06T02:58:02.047Z,5.90
2022-12-06T03:03:28.956Z,4.90
2022-12-06T03:06:14.662Z,5.80
2022-12-06T03:08:55.495Z,5.50
2022-12-06T03:11:30.861Z,5.00
2022-12-06T03:14:05.597Z,5.10
2022-12-06T03:16:44.176Z,4.10
2022-12-06T03:19:20.434Z,5.80
2022-12-06T03:21:58.693Z,5.70
2022-12-06T03:24:33.621Z,4.10
2022-12-06T03:27:08.971Z,5.50
2022-12-06T03:29:44.627Z,6.60
2022-12-06T03:32:19.152Z,5.10
2022-12-06T03:34:53.607Z,4.50
2022-12-06T03:37:28.203Z,5.50
2022-12-06T03:40:07.118Z,5.30
2022-12-06T03:42:40.093Z,5.80
2022-12-06T03:45:13.817Z,6.20
2022-12-06T03:47:52.029Z,6.40
2022-12-06T03:50:28.082Z,5.10
2022-12-06T03:53:00.789Z,5.40
2022-12-06T03:55:33.211Z,5.50
2022-12-06T03:58:05.478Z,5.80
2022-12-06T04:00:37.645Z,5.60
2022-12-06T04:03:09.802Z,5.60
2022-12-06T04:05:42.009Z,5.80
2022-12-06T04:08:14.251Z,6.40
2022-12-06T04:10:46.556Z,7.30
2022-12-06T04:13:19.853Z,7.30
2022-12-06T04:15:55.887Z,8.60
2022-12-06T04:18:28.476Z,7.10
2022-12-06T04:23:51.098Z,11.10
2022-12-06T04:26:24.577Z,8.20
2022-12-06T04:29:14.769Z,8.00
2022-12-06T04:32:04.933Z,7.90
2022-12-06T04:34:54.975Z,9.20
2022-12-06T04:37:45.018Z,7.70
2022-12-06T04:40:17.459Z,6.20
2022-12-06T04:43:07.298Z,6.90
2022-12-06T04:45:39.458Z,6.50
2022-12-06T04:48:11.979Z,6.50
2022-12-06T04:50:44.119Z,5.60
2022-12-06T04:53:16.740Z,7.80
2022-12-06T04:55:50.367Z,9.60
2022-12-06T04:58:22.578Z,8.30
2022-12-06T05:00:55.900Z,7.10
2022-12-06T05:03:28.347Z,5.90
2022-12-06T05:06:00.616Z,10.90
2022-12-06T05:08:33.337Z,7.70
2022-12-06T05:11:07.936Z,5.80
2022-12-06T05:16:13.583Z,7.50
2022-12-06T05:18:45.816Z,6.30
2022-12-06T05:21:19.791Z,9.70
2022-12-06T05:23:53.372Z,7.50
2022-12-06T05:26:27.408Z,8.00
2022-12-06T05:29:00.076Z,8.80
2022-12-06T05:34:02.881Z,8.20
2022-12-06T05:36:35.168Z,7.30
2022-12-06T05:39:07.529Z,8.50
2022-12-06T05:41:39.843Z,7.50
2022-12-06T05:44:13.503Z,9.00
2022-12-06T05:46:45.757Z,9.30
2022-12-06T05:49:18.147Z,13.00
2022-12-06T05:51:50.342Z,9.00
2022-12-06T05:54:23.139Z,10.20
2022-12-06T05:59:25.750Z,13.00
2022-12-06T06:01:58.192Z,10.90
2022-12-06T06:04:30.617Z,11.00
2022-12-06T06:07:03.064Z,9.80
2022-12-06T06:09:35.337Z,12.20
2022-12-06T06:12:12.512Z,10.10
2022-12-06T06:14:45.101Z,11.70
2022-12-06T06:17:17.347Z,10.70
2022-12-06T06:19:51.502Z,8.80
2022-12-06T06:22:24.696Z,9.40
2022-12-06T06:24:56.898Z,9.00
2022-12-06T06:27:29.222Z,9.80
2022-12-06T06:30:01.676Z,9.60
2022-12-06T06:32:34.323Z,7.40
2022-12-06T06:35:07.292Z,9.30
2022-12-06T06:37:39.546Z,7.80
2022-12-06T06:40:12.797Z,10.10
2022-12-06T06:42:46.136Z,11.10
2022-12-06T06:45:18.459Z,11.10
2022-12-06T06:47:50.670Z,12.10
2022-12-06T06:50:22.947Z,10.30
2022-12-06T06:52:55.216Z,8.80
2022-12-06T06:55:27.579Z,14.30
2022-12-06T06:57:59.874Z,14.60
2022-12-06T07:00:32.255Z,13.90
2022-12-06T07:03:04.938Z,11.00
2022-12-06T07:08:08.197Z,15.00
2022-12-06T07:13:11.077Z,12.70
2022-12-06T07:15:43.271Z,12.60
2022-12-06T07:18:17.135Z,12.70
2022-12-06T07:20:50.197Z,13.50
2022-12-06T07:23:22.645Z,8.90
2022-12-06T07:28:34.793Z,11.50
2022-12-06T07:31:18.951Z,15.20
2022-12-06T07:33:53.423Z,13.60
2022-12-06T07:36:26.655Z,15.40
2022-12-06T07:39:00.156Z,16.30
2022-12-06T07:41:50.709Z,15.00
2022-12-06T07:44:40.499Z,18.70
2022-12-06T07:47:12.777Z,17.10
2022-12-06T07:49:45.035Z,14.80
2022-12-06T07:52:17.255Z,11.70
2022-12-06T07:54:49.482Z,15.00
2022-12-06T07:57:22.664Z,18.20
2022-12-06T07:59:55.646Z,23.90
2022-12-06T08:02:30.392Z,16.60
2022-12-06T08:05:02.695Z,20.10
2022-12-06T08:07:34.993Z,18.20
2022-12-06T08:10:09.184Z,20.20
2022-12-06T08:12:41.562Z,23.70
2022-12-06T08:15:14.340Z,20.90
2022-12-06T08:17:46.976Z,21.50
2022-12-06T08:20:22.133Z,19.70
2022-12-06T08:22:54.415Z,21.10
2022-12-06T08:25:26.641Z,26.10
2022-12-06T08:27:59.078Z,21.50
2022-12-06T08:30:31.576Z,24.30
2022-12-06T08:33:04.152Z,26.70
2022-12-06T08:35:39.170Z,23.40
2022-12-06T08:38:11.578Z,24.40
2022-12-06T08:40:43.998Z,17.90
2022-12-06T08:43:16.366Z,20.30
2022-12-06T08:45:53.749Z,22.10
2022-12-06T08:48:26.093Z,27.60
2022-12-06T08:50:58.501Z,24.70
2022-12-06T08:53:30.971Z,23.90
2022-12-06T08:56:03.266Z,20.80
2022-12-06T08:58:35.480Z,25.10
2022-12-06T09:01:14.590Z,24.50
2022-12-06T09:03:47.503Z,22.00
2022-12-06T09:06:20.341Z,25.50
2022-12-06T09:08:54.133Z,28.00
2022-12-06T09:11:26.429Z,28.30
2022-12-06T09:13:59.092Z,24.20
2022-12-06T09:19:02.131Z,22.40
2022-12-06T09:28:46.376Z,21.50
2022-12-06T09:31:19.166Z,21.50
2022-12-06T09:33:52.020Z,21.10
2022-12-06T09:36:26.204Z,23.10
2022-12-06T09:39:19.130Z,26.20
2022-12-06T09:42:37.228Z,22.30
2022-12-06T09:45:35.945Z,23.50
2022-12-06T09:48:21.405Z,22.40
2022-12-06T09:51:00.292Z,20.70
2022-12-06T09:53:43.516Z,19.20
2022-12-06T09:56:23.148Z,22.70
2022-12-06T09:59:04.808Z,23.50
2022-12-06T10:01:44.430Z,25.00
2022-12-06T10:04:39.495Z,26.30
2022-12-06T10:07:16.280Z,23.70
2022-12-06T10:09:55.464Z,23.70
2022-12-06T10:12:39.105Z,24.00
2022-12-06T10:15:23.715Z,23.30
2022-12-06T10:18:11.242Z,22.40
2022-12-06T10:20:50.667Z,24.10
2022-12-06T10:23:37.325Z,23.70
2022-12-06T10:26:17.151Z,22.60
2022-12-06T10:28:52.565Z,28.20
2022-12-06T10:31:28.810Z,29.40
2022-12-06T10:34:04.359Z,25.90
2022-12-06T10:36:48.654Z,22.50
2022-12-06T10:39:25.572Z,21.10
2022-12-06T10:42:03.469Z,24.00
2022-12-06T10:44:41.515Z,26.80
2022-12-06T10:47:18.351Z,28.00
2022-12-06T10:49:55.818Z,22.20
2022-12-06T10:52:34.642Z,26.00
2022-12-06T10:55:18.444Z,23.70
2022-12-06T10:57:56.262Z,24.90
2022-12-06T11:00:30.392Z,25.60
2022-12-06T11:03:06.950Z,25.50
2022-12-06T11:05:42.849Z,26.10
2022-12-06T11:08:17.132Z,29.90
2022-12-06T11:10:50.027Z,24.70
2022-12-06T11:13:27.017Z,26.30
2022-12-06T11:16:02.877Z,23.80
2022-12-06T11:18:36.275Z,22.20
2022-12-06T11:21:20.498Z,26.50
2022-12-06T11:23:58.145Z,25.40
2022-12-06T11:26:39.092Z,25.20
2022-12-06T11:29:16.022Z,24.30
2022-12-06T11:31:50.724Z,23.50
2022-12-06T11:34:27.149Z,28.20
2022-12-06T11:37:00.917Z,26.20
2022-12-06T11:39:34.161Z,24.30
2022-12-06T11:42:08.415Z,24.80
2022-12-06T11:44:49.657Z,24.10
2022-12-06T11:47:24.288Z,24.60
2022-12-06T11:50:23.326Z,23.50
2022-12-06T11:53:02.378Z,27.80
2022-12-06T11:55:38.407Z,25.80
2022-12-06T11:58:14.844Z,30.40
2022-12-06T12:01:02.115Z,28.60
2022-12-06T12:03:36.848Z,29.40
2022-12-06T12:06:20.325Z,28.60
2022-12-06T12:08:59.441Z,28.40
2022-12-06T12:11:34.178Z,25.40
2022-12-06T12:14:09.225Z,25.30
2022-12-06T12:16:48.375Z,25.60
2022-12-06T12:19:33.208Z,23.00
2022-12-06T12:22:24.327Z,28.80
2022-12-06T12:27:52.788Z,35.40
2022-12-06T12:30:28.470Z,35.20
2022-12-06T12:33:18.728Z,37.40
2022-12-06T12:35:52.821Z,30.10
2022-12-06T12:38:30.080Z,27.80
2022-12-06T12:41:05.383Z,26.50
2022-12-06T12:43:37.719Z,32.00
2022-12-06T12:46:21.424Z,29.50
2022-12-06T12:48:54.242Z,27.10
2022-12-06T12:51:32.521Z,27.00
2022-12-06T12:54:06.739Z,26.60
2022-12-06T12:56:40.235Z,33.80
2022-12-06T12:59:18.380Z,34.40
2022-12-06T13:01:53.338Z,35.70
2022-12-06T13:04:37.949Z,34.20
2022-12-06T13:07:16.478Z,30.80
2022-12-06T13:09:55.151Z,30.30
2022-12-06T13:12:32.582Z,35.60
2022-12-06T13:15:10.165Z,34.60
2022-12-06T13:17:45.564Z,35.60
2022-12-06T13:20:26.777Z,33.30
2022-12-06T13:23:03.088Z,27.30
2022-12-06T13:25:37.530Z,31.30
2022-12-06T13:30:42.350Z,33.90
2022-12-06T13:33:21.849Z,31.40
2022-12-06T13:35:58.984Z,31.90
2022-12-06T13:38:37.272Z,27.40
2022-12-06T13:41:12.286Z,27.80
2022-12-06T13:43:53.765Z,32.40
2022-12-06T13:46:29.487Z,28.80
2022-12-06T13:49:03.508Z,29.10
2022-12-06T13:51:51.521Z,27.40
2022-12-06T13:54:34.297Z,31.70
2022-12-06T13:59:45.894Z,30.20
2022-12-06T14:02:51.174Z,27.80
2022-12-06T14:08:34.540Z,27.50
2022-12-06T14:11:20.304Z,24.80
2022-12-06T14:14:03.403Z,29.80
2022-12-06T14:16:40.532Z,27.60
2022-12-06T14:19:21.857Z,28.80
2022-12-06T14:21:59.903Z,30.20
2022-12-06T14:24:35.306Z,28.00
2022-12-06T14:27:12.807Z,27.40
2022-12-06T14:29:59.857Z,26.80
2022-12-06T14:32:38.864Z,28.80
2022-12-06T14:35:16.806Z,27.90
2022-12-06T14:37:54.008Z,26.30
2022-12-06T14:43:22.492Z,36.90
2022-12-06T14:45:56.607Z,35.60
2022-12-06T14:48:51.183Z,32.20
2022-12-06T14:51:26.647Z,34.40
2022-12-06T14:54:19.314Z,35.80
2022-12-06T14:56:51.619Z,31.30
2022-12-06T15:00:03.053Z,30.20
2022-12-06T15:02:26.893Z,32.30
2022-12-06T15:04:59.437Z,32.80
2022-12-06T15:10:22.981Z,35.70
2022-12-06T15:12:59.035Z,30.00
2022-12-06T15:15:40.496Z,32.10
2022-12-06T15:18:25.587Z,33.10
2022-12-06T15:20:59.319Z,30.60
2022-12-06T15:23:38.473Z,32.20
2022-12-06T15:26:14.464Z,38.40
2022-12-06T15:28:47.422Z,36.40
2022-12-06T15:31:24.488Z,35.20
2022-12-06T15:33:58.882Z,28.40
2022-12-06T15:36:36.654Z,34.40
2022-12-06T15:39:13.541Z,35.20
2022-12-06T15:41:56.663Z,34.10
2022-12-06T15:44:43.057Z,33.10
2022-12-06T15:47:27.945Z,35.40
2022-12-06T15:50:24.789Z,29.30
2022-12-06T15:55:46.216Z,28.30
2022-12-06T15:58:19.804Z,32.20
2022-12-06T16:00:55.348Z,33.70
2022-12-06T16:03:34.709Z,29.80
2022-12-06T16:06:10.205Z,31.10
2022-12-06T16:08:47.753Z,31.90
2022-12-06T16:11:22.798Z,34.60
2022-12-06T16:13:55.416Z,31.20
2022-12-06T16:16:28.162Z,35.60
2022-12-06T16:19:02.098Z,34.80
2022-12-06T16:21:37.747Z,33.70
2022-12-06T16:24:16.135Z,30.10
2022-12-06T16:26:49.713Z,28.90
2022-12-06T16:29:25.318Z,32.00
2022-12-06T16:31:58.714Z,30.60
2022-12-06T16:34:31.197Z,30.30
2022-12-06T16:37:06.732Z,34.60
2022-12-06T16:39:39.216Z,33.90
2022-12-06T16:42:12.506Z,33.10
2022-12-06T16:44:52.121Z,31.90
2022-12-06T16:49:56.637Z,31.90
2022-12-06T16:52:29.552Z,35.20
2022-12-06T16:55:02.620Z,33.20
2022-12-06T16:57:35.957Z,30.40
2022-12-06T17:00:28.425Z,33.00
2022-12-06T17:03:19.847Z,32.40
2022-12-06T17:05:57.465Z,30.60
2022-12-06T17:08:32.807Z,32.50
2022-12-06T17:13:50.808Z,34.10
2022-12-06T17:16:23.418Z,34.10
2022-12-06T17:18:55.707Z,35.80
2022-12-06T17:21:28.028Z,31.20
2022-12-06T17:24:03.760Z,32.70
2022-12-06T17:26:36.348Z,28.70
2022-12-06T17:29:10.666Z,34.40
2022-12-06T17:31:43.979Z,31.30
2022-12-06T17:34:16.851Z,33.80
2022-12-06T17:36:49.614Z,35.90
2022-12-06T17:39:22.868Z,33.80
2022-12-06T17:42:13.012Z,32.50
2022-12-06T17:44:45.330Z,34.20
2022-12-06T17:47:17.551Z,35.70
2022-12-06T17:49:49.859Z,37.40
2022-12-06T17:52:22.035Z,35.70
2022-12-06T17:54:54.255Z,36.90
2022-12-06T17:57:26.483Z,34.60
2022-12-06T17:59:59.868Z,33.50
2022-12-06T18:02:32.158Z,35.80
2022-12-06T18:07:38.174Z,32.00
2022-12-06T18:10:12.383Z,39.50
2022-12-06T18:12:45.051Z,41.00
2022-12-06T18:18:06.686Z,36.00
2022-12-06T18:20:44.790Z,33.10
2022-12-06T18:23:18.028Z,33.00
2022-12-06T18:25:50.493Z,35.50
2022-12-06T18:28:22.736Z,36.50
2022-12-06T18:30:56.566Z,37.90
2022-12-06T18:33:32.378Z,35.20
2022-12-06T18:36:05.328Z,40.20
2022-12-06T18:38:38.220Z,37.50
2022-12-06T18:41:23.176Z,41.90
2022-12-06T18:44:01.144Z,36.20
2022-12-06T18:46:33.948Z,34.90
2022-12-06T18:49:06.553Z,41.60
2022-12-06T18:51:43.829Z,39.00
2022-12-06T18:54:16.377Z,41.70
2022-12-06T18:59:25.955Z,39.80
2022-12-06T19:02:00.180Z,42.30
2022-12-06T19:04:33.107Z,42.80
2022-12-06T19:07:06.801Z,41.20
2022-12-06T19:09:39.218Z,39.40
2022-12-06T19:12:11.631Z,44.30
2022-12-06T19:14:43.817Z,38.40
2022-12-06T19:17:16.183Z,45.50
2022-12-06T19:19:48.422Z,44.10
2022-12-06T19:22:20.782Z,41.50
2022-12-06T19:24:53.141Z,46.00
2022-12-06T19:27:25.395Z,41.50
2022-12-06T19:29:57.731Z,44.40
2022-12-06T19:32:30.109Z,43.80
2022-12-06T19:35:08.102Z,46.70
2022-12-06T19:37:40.863Z,39.40
2022-12-06T19:40:14.800Z,42.90
2022-12-06T19:43:04.837Z,42.50
2022-12-06T19:45:38.477Z,43.70
2022-12-06T19:48:12.022Z,46.20
2022-12-06T19:50:45.183Z,41.80
2022-12-06T19:53:19.520Z,38.60
2022-12-06T19:55:52.624Z,39.60
2022-12-06T19:58:25.031Z,44.20
2022-12-06T20:00:58.118Z,39.90
2022-12-06T20:03:30.454Z,39.90
2022-12-06T20:06:08.093Z,36.60
2022-12-06T20:08:40.731Z,40.20
2022-12-06T20:12:15.069Z,36.90
2022-12-06T20:14:48.674Z,36.80
2022-12-06T20:17:23.708Z,32.70
2022-12-06T20:20:01.444Z,37.40
2022-12-06T20:22:34.059Z,39.20
2022-12-06T20:25:07.105Z,33.10
2022-12-06T20:27:56.142Z,31.50
2022-12-06T20:30:30.880Z,33.00
2022-12-06T20:33:03.964Z,38.50
2022-12-06T20:35:39.293Z,37.90
2022-12-06T20:38:11.481Z,34.20
2022-12-06T20:40:43.815Z,35.70
2022-12-06T20:43:16.085Z,34.50
2022-12-06T20:45:48.275Z,32.70
2022-12-06T20:48:20.923Z,30.00
2022-12-06T20:53:23.719Z,34.10
2022-12-06T20:55:56.634Z,30.90
2022-12-06T20:58:28.838Z,38.60
2022-12-06T21:01:01.392Z,32.90
2022-12-06T21:03:35.097Z,34.90
2022-12-06T21:06:09.397Z,34.60
2022-12-06T21:08:43.005Z,38.30
2022-12-06T21:11:23.908Z,38.70
2022-12-06T21:13:57.947Z,34.40
2022-12-06T21:16:31.372Z,30.70
2022-12-06T21:19:05.453Z,37.90
2022-12-06T21:21:39.847Z,36.20
2022-12-06T21:24:15.160Z,38.70
2022-12-06T21:26:47.541Z,38.60
2022-12-06T21:29:26.402Z,37.40
2022-12-06T21:32:05.204Z,34.60
2022-12-06T21:34:44.537Z,35.60
2022-12-06T21:37:18.525Z,35.50
2022-12-06T21:39:50.686Z,33.30
2022-12-06T21:42:24.091Z,37.70
2022-12-06T21:44:56.257Z,38.20
2022-12-06T21:47:28.597Z,38.60
2022-12-06T21:50:00.967Z,37.90
2022-12-06T21:55:04.099Z,33.70
2022-12-06T21:57:37.626Z,33.50
2022-12-06T22:00:12.343Z,34.20
2022-12-06T22:02:44.588Z,34.40
2022-12-06T22:05:16.804Z,34.60
2022-12-06T22:07:49.257Z,35.50
2022-12-06T22:10:21.551Z,40.00
2022-12-06T22:12:53.767Z,37.40
2022-12-06T22:15:25.988Z,34.40
2022-12-06T22:17:58.352Z,41.10
2022-12-06T22:20:30.492Z,42.90
2022-12-06T22:23:02.748Z,44.20
2022-12-06T22:25:34.899Z,39.30
2022-12-06T22:28:07.192Z,39.70
2022-12-06T22:30:39.368Z,41.40
2022-12-06T22:33:11.619Z,37.30
2022-12-06T22:35:43.851Z,44.60
2022-12-06T22:38:16.177Z,35.80
2022-12-06T22:40:48.298Z,36.60
2022-12-06T22:43:20.531Z,37.60
2022-12-06T22:45:52.827Z,36.00
2022-12-06T22:48:25.058Z,32.70
2022-12-06T22:50:57.271Z,31.40
2022-12-06T22:53:29.426Z,31.70
2022-12-06T22:56:03.741Z,33.00
2022-12-06T22:58:36.051Z,36.50
2022-12-06T23:01:17.171Z,35.80
2022-12-06T23:03:50.850Z,30.40
2022-12-06T23:06:24.949Z,32.10
2022-12-06T23:08:57.869Z,37.80
2022-12-06T23:11:31.872Z,37.10
2022-12-06T23:14:04.469Z,37.00
2022-12-06T23:16:37.273Z,38.00
2022-12-06T23:19:11.093Z,33.60
2022-12-06T23:21:43.402Z,33.00
2022-12-06T23:24:16.230Z,30.30
2022-12-06T23:26:54.575Z,35.40
2022-12-06T23:29:29.961Z,34.70
2022-12-06T23:32:02.257Z,28.20
2022-12-06T23:34:34.813Z,28.90
2022-12-06T23:37:06.983Z,26.70
2022-12-06T23:39:39.595Z,27.40
2022-12-06T23:42:11.878Z,24.90
2022-12-06T23:44:44.074Z,27.40
2022-12-06T23:47:16.211Z,32.70
2022-12-06T23:49:48.438Z,32.80
2022-12-06T23:52:20.552Z,28.80
2022-12-06T23:54:52.727Z,28.20
2022-12-06T23:57:24.912Z,30.10
2022-12-06T23:59:57.186Z,24.70
